Southend — A8XQ4 — position and weather

sailwx.info

Track history (hours):
 
Tides and Currents Weather Stations Pressure Air Temp Water Temp Dewpoint Dewpoint Depression Visibility Wind Speed Wind Dir Waves Ship Positions

Southend

Last reported at 2018-Apr-13 01:10 UTC. Time now 2018-Apr-21 13:41 UTC.
Position N 22°46' W 089°28'.
Warning: this ship's position is 8 days out of date.

Length 187 m; draft 7 m.

Type: Cargo ship. MMSI: 636017652.

Date/timePositionNaut miles runAvg speedWind from/ knotsBaromVisibWave heightAir tempDewpointWater temp
2018-Apr-13 01:10N 22°46' W 089°28'210.4
2018-Apr-13 00:59N 22°44' W 089°28'510.5
2018-Apr-13 00:30N 22°39' W 089°29'1010.5
2018-Apr-12 23:31N 22°29' W 089°29'010.8
2018-Apr-12 23:30N 22°28' W 089°29'610.8
2018-Apr-12 22:59N 22°23' W 089°30'510.7
2018-Apr-12 22:30N 22°18' W 089°31'510.4
2018-Apr-12 22:00N 22°13' W 089°32'510.6
2018-Apr-12 21:30N 22°08' W 089°34'510.6
2018-Apr-12 21:00N 22°02' W 089°35'510.9
2018-Apr-12 20:30N 21°57' W 089°35'510.9
2018-Apr-12 20:00N 21°52' W 089°36'510.9
2018-Apr-12 19:30N 21°46' W 089°37'5 9.6
2018-Apr-12 19:00N 21°42' W 089°38'1 1.2
2018-Apr-12 18:29N 21°41' W 089°38'0 0.0
2018-Apr-12 17:59N 21°41' W 089°38'0 0.0
2018-Apr-12 17:29N 21°41' W 089°38'0 0.0
2018-Apr-12 16:59N 21°41' W 089°38'0 0.0
2018-Apr-12 16:29N 21°41' W 089°38'0 0.0
2018-Apr-12 15:59N 21°41' W 089°38'0 0.0
2018-Apr-12 15:29N 21°41' W 089°38'0 0.0
2018-Apr-12 14:59N 21°41' W 089°38'0 0.0
2018-Apr-12 14:29N 21°41' W 089°38'0 0.0
2018-Apr-12 13:59N 21°41' W 089°38'0 0.0
2018-Apr-12 13:29N 21°41' W 089°38'0 0.0
2018-Apr-12 12:59N 21°41' W 089°38'0 0.1
2018-Apr-12 12:29N 21°41' W 089°38'0 0.0
2018-Apr-12 11:59N 21°41' W 089°38'0 0.0
2018-Apr-12 11:29N 21°41' W 089°38'0 0.0
2018-Apr-12 10:53N 21°41' W 089°38'0 0.0
2018-Apr-12 10:29N 21°41' W 089°38'0 0.1
2018-Apr-12 09:59N 21°41' W 089°38'0 0.0
2018-Apr-12 09:26N 21°41' W 089°38'0 0.0
2018-Apr-12 08:59N 21°41' W 089°38'0 0.0
2018-Apr-12 08:29N 21°41' W 089°38'0 0.0
2018-Apr-12 07:56N 21°41' W 089°38'0 0.0
2018-Apr-12 07:29N 21°41' W 089°38'0 0.0
2018-Apr-12 06:59N 21°41' W 089°38'0 0.0
2018-Apr-12 06:29N 21°41' W 089°38'0 0.0
2018-Apr-12 05:59N 21°41' W 089°38'0 0.0
2018-Apr-12 05:29N 21°41' W 089°38'0 0.0
2018-Apr-12 04:59N 21°41' W 089°38'0 0.0
2018-Apr-12 04:29N 21°41' W 089°38'0 0.0
2018-Apr-12 03:59N 21°41' W 089°38'0 0.0
2018-Apr-12 03:29N 21°41' W 089°38'0 0.0
2018-Apr-12 02:56N 21°41' W 089°38'0 0.0
2018-Apr-12 02:29N 21°41' W 089°38'0 0.1
2018-Apr-12 01:59N 21°41' W 089°38'0 0.0
2018-Apr-12 01:29N 21°41' W 089°38'0 0.1
2018-Apr-12 00:59N 21°41' W 089°38'0 0.0
2018-Apr-12 00:29N 21°41' W 089°38'0 0.0
2018-Apr-11 23:50N 21°41' W 089°38'0 0.1
2018-Apr-11 23:26N 21°41' W 089°38'0 0.1
2018-Apr-11 22:59N 21°41' W 089°38'0 0.0
2018-Apr-11 22:29N 21°41' W 089°38'0 0.0
2018-Apr-11 21:56N 21°41' W 089°38'0 0.1
2018-Apr-11 21:26N 21°41' W 089°38'0 0.0
2018-Apr-11 20:14N 21°41' W 089°38'0 0.3
2018-Apr-11 19:50N 21°41' W 089°38'9 8.2
2018-Apr-11 18:41N 21°32' W 089°40'2 9.6
2018-Apr-11 18:30N 21°30' W 089°40'5 9.6
2018-Apr-11 18:00N 21°25' W 089°42'4 8.7
2018-Apr-11 17:30N 21°21' W 089°42'1 1.5
2018-Apr-11 16:58N 21°21' W 089°41'0 0.0
2018-Apr-11 16:29N 21°21' W 089°41'0 0.0
2018-Apr-11 15:59N 21°21' W 089°41'0 0.0
2018-Apr-11 15:29N 21°21' W 089°41'0 0.0
2018-Apr-11 14:59N 21°21' W 089°41'0 0.0
2018-Apr-11 14:29N 21°21' W 089°41'0 0.0
2018-Apr-11 13:59N 21°21' W 089°41'0 0.0
2018-Apr-11 13:29N 21°21' W 089°41'0 0.0
2018-Apr-11 12:59N 21°21' W 089°41'0 0.0
2018-Apr-11 12:29N 21°21' W 089°41'0 0.0
2018-Apr-11 11:59N 21°21' W 089°41'0 0.0
2018-Apr-11 11:29N 21°21' W 089°41'0 0.0
2018-Apr-11 10:59N 21°21' W 089°41'0 0.0
2018-Apr-11 10:29N 21°21' W 089°41'0 0.0
2018-Apr-11 09:59N 21°21' W 089°41'0 0.0
2018-Apr-11 09:29N 21°21' W 089°41'0 0.0
2018-Apr-11 08:59N 21°21' W 089°41'0 0.0
2018-Apr-11 08:28N 21°21' W 089°41'0 0.0
2018-Apr-11 07:58N 21°21' W 089°41'0 0.0
2018-Apr-11 07:29N 21°21' W 089°41'0 0.0
2018-Apr-11 06:58N 21°21' W 089°41'0 0.0
2018-Apr-11 06:29N 21°21' W 089°41'0 0.0
2018-Apr-11 05:59N 21°21' W 089°41'0 0.0
2018-Apr-11 05:29N 21°21' W 089°41'0 0.0
2018-Apr-11 04:58N 21°21' W 089°41'0 0.0
2018-Apr-11 04:29N 21°21' W 089°41'0 0.0
2018-Apr-11 03:59N 21°21' W 089°41'0 0.0
2018-Apr-11 03:29N 21°21' W 089°41'0 0.0
2018-Apr-11 02:58N 21°21' W 089°41'0 0.0
2018-Apr-11 02:28N 21°21' W 089°41'0 0.0
2018-Apr-11 01:58N 21°21' W 089°41'0 0.0
2018-Apr-11 01:29N 21°21' W 089°41'0 0.0
2018-Apr-11 00:58N 21°21' W 089°41'0 0.0
2018-Apr-11 00:28N 21°21' W 089°41'0 0.0
2018-Apr-10 23:58N 21°21' W 089°41'0 0.0
2018-Apr-10 23:29N 21°21' W 089°41'0 0.0
2018-Apr-10 22:59N 21°21' W 089°41'0 0.0
2018-Apr-10 22:28N 21°21' W 089°41'0 0.0
2018-Apr-10 21:59N 21°21' W 089°41'0 0.0
2018-Apr-10 21:28N 21°21' W 089°41'0 0.0
2018-Apr-10 21:00N 21°21' W 089°41'0 0.0
2018-Apr-10 20:30N 21°21' W 089°41'0 0.0
2018-Apr-10 20:00N 21°21' W 089°41'0 0.0
2018-Apr-10 19:30N 21°21' W 089°41'0 0.0
2018-Apr-10 19:00N 21°21' W 089°41'0 0.0
2018-Apr-10 18:30N 21°21' W 089°41'0 0.0
2018-Apr-10 18:00N 21°21' W 089°41'0 0.0
2018-Apr-10 17:30N 21°21' W 089°41'0 0.0
2018-Apr-10 17:00N 21°21' W 089°41'0 0.0
2018-Apr-10 16:30N 21°21' W 089°41'0 0.0
2018-Apr-10 16:00N 21°21' W 089°41'0 0.0
2018-Apr-10 15:30N 21°21' W 089°41'0 0.0
2018-Apr-10 15:00N 21°21' W 089°41'0 0.0
2018-Apr-10 14:30N 21°21' W 089°41'0 0.0
2018-Apr-10 14:00N 21°21' W 089°41'0 0.0
2018-Apr-10 13:30N 21°21' W 089°41'0 0.0
2018-Apr-10 13:00N 21°21' W 089°41'0 0.0
2018-Apr-10 12:30N 21°21' W 089°41'0 0.0
2018-Apr-10 12:00N 21°21' W 089°41'0 0.0
2018-Apr-10 11:30N 21°21' W 089°41'0 0.0
2018-Apr-10 11:00N 21°21' W 089°41'0 0.0
2018-Apr-10 10:30N 21°21' W 089°41'0 0.0
2018-Apr-10 10:00N 21°21' W 089°41'0 0.0
2018-Apr-10 09:30N 21°21' W 089°41'0 0.0
2018-Apr-10 09:00N 21°21' W 089°41'0 0.0
2018-Apr-10 08:30N 21°21' W 089°41'0 0.0
2018-Apr-10 08:00N 21°21' W 089°41'0 0.0
2018-Apr-10 07:30N 21°21' W 089°41'0 0.0
2018-Apr-10 07:00N 21°21' W 089°41'0 0.0
2018-Apr-10 06:30N 21°21' W 089°41'0 0.0
2018-Apr-10 06:00N 21°21' W 089°41'0 0.0
2018-Apr-10 05:30N 21°21' W 089°41'0 0.0
2018-Apr-10 05:00N 21°21' W 089°41'0 0.0
2018-Apr-10 04:30N 21°21' W 089°41'0 0.0
2018-Apr-10 04:00N 21°21' W 089°41'0 0.0
2018-Apr-10 03:30N 21°21' W 089°41'0 0.0
2018-Apr-10 03:00N 21°21' W 089°41'0 0.0
2018-Apr-10 02:30N 21°21' W 089°41'0 0.0
2018-Apr-10 02:00N 21°21' W 089°41'0 0.0
2018-Apr-10 01:30N 21°21' W 089°41'0 0.0
2018-Apr-10 01:00N 21°21' W 089°41'0 0.0
2018-Apr-10 00:30N 21°21' W 089°41'0 0.0
2018-Apr-10 00:00N 21°21' W 089°41'0 0.0
2018-Apr-09 23:30N 21°21' W 089°41'0 0.0
2018-Apr-09 23:00N 21°21' W 089°41'0 0.0
2018-Apr-09 22:30N 21°21' W 089°41'0 0.0
2018-Apr-09 22:00N 21°21' W 089°41'0 0.0
2018-Apr-09 21:30N 21°21' W 089°41'0 0.0
2018-Apr-09 21:00N 21°21' W 089°41'0 0.0
2018-Apr-09 20:30N 21°21' W 089°41'0 0.0
2018-Apr-09 20:00N 21°21' W 089°41'0 0.0
2018-Apr-09 19:30N 21°21' W 089°41'0 0.0
2018-Apr-09 19:00N 21°21' W 089°41'0 0.0
2018-Apr-09 18:30N 21°21' W 089°41'0 0.0
2018-Apr-09 18:00N 21°21' W 089°41'0 0.0
2018-Apr-09 17:30N 21°21' W 089°41'0 0.0
2018-Apr-09 17:00N 21°21' W 089°41'0 0.0
2018-Apr-09 16:30N 21°21' W 089°41'0 0.0
2018-Apr-09 16:00N 21°21' W 089°41'0 0.0
2018-Apr-09 15:30N 21°21' W 089°41'0 0.0
2018-Apr-09 15:00N 21°21' W 089°41'0 0.0
2018-Apr-09 14:30N 21°21' W 089°41'0 0.0
2018-Apr-09 14:00N 21°21' W 089°41'0 0.0
2018-Apr-09 13:30N 21°21' W 089°41'0 0.0
2018-Apr-09 13:00N 21°21' W 089°41'0 0.0
2018-Apr-09 12:30N 21°21' W 089°41'0 0.0
2018-Apr-09 12:00N 21°21' W 089°41'0 0.0
2018-Apr-09 11:30N 21°21' W 089°41'0 0.0
2018-Apr-09 11:00N 21°21' W 089°41'0 0.0
2018-Apr-09 10:30N 21°21' W 089°41'0 0.0
2018-Apr-09 10:00N 21°21' W 089°41'0 0.0
2018-Apr-09 09:30N 21°21' W 089°41'0 0.0
2018-Apr-09 09:00N 21°21' W 089°41'0 0.0
2018-Apr-09 08:30N 21°21' W 089°41'0 0.0
2018-Apr-09 08:00N 21°21' W 089°41'0 0.0
2018-Apr-09 07:30N 21°21' W 089°41'0 0.0
2018-Apr-09 07:00N 21°21' W 089°41'0 0.0
2018-Apr-09 06:30N 21°21' W 089°41'0 0.0
2018-Apr-09 06:00N 21°21' W 089°41'0 0.0
2018-Apr-09 05:30N 21°21' W 089°41'0 0.0
2018-Apr-09 05:00N 21°21' W 089°41'0 0.0
2018-Apr-09 04:30N 21°21' W 089°41'0 0.0
2018-Apr-09 04:00N 21°21' W 089°41'0 0.0
2018-Apr-09 03:30N 21°21' W 089°41'0 0.0
2018-Apr-09 03:00N 21°21' W 089°41'0 0.0
2018-Apr-09 02:30N 21°21' W 089°41'0 0.0
2018-Apr-09 02:00N 21°21' W 089°41'0 0.0
2018-Apr-09 01:30N 21°21' W 089°41'0 0.0
2018-Apr-09 01:00N 21°21' W 089°41'0 0.0
2018-Apr-09 00:30N 21°21' W 089°41'0 0.0
2018-Apr-09 00:00N 21°21' W 089°41'0 0.0
2018-Apr-08 23:30N 21°21' W 089°41'0 0.0
2018-Apr-08 23:00N 21°21' W 089°41'0 0.0
2018-Apr-08 22:30N 21°21' W 089°41'0 0.0
2018-Apr-08 22:00N 21°21' W 089°41'0 0.0
2018-Apr-08 21:30N 21°21' W 089°41'0 0.0
2018-Apr-08 21:00N 21°21' W 089°41'0 0.0
2018-Apr-08 20:30N 21°21' W 089°41'0 0.0
2018-Apr-08 20:00N 21°21' W 089°41'0 0.0
2018-Apr-08 19:30N 21°21' W 089°41'0 0.0
2018-Apr-08 19:00N 21°21' W 089°41'0 0.0
2018-Apr-08 18:30N 21°21' W 089°41'0 0.0
2018-Apr-08 18:00N 21°21' W 089°41'0 0.0
2018-Apr-08 17:30N 21°21' W 089°41'0 0.0
2018-Apr-08 17:00N 21°21' W 089°41'0 0.0
2018-Apr-08 16:30N 21°21' W 089°41'0 0.0
2018-Apr-08 16:00N 21°21' W 089°41'0 0.0
2018-Apr-08 15:30N 21°21' W 089°41'0 0.0
2018-Apr-08 15:00N 21°21' W 089°41'0 0.0
2018-Apr-08 14:30N 21°21' W 089°41'0 0.0
2018-Apr-08 14:00N 21°21' W 089°41'0 0.0
2018-Apr-08 13:30N 21°21' W 089°41'0 0.0
2018-Apr-08 13:00N 21°21' W 089°41'0 0.0
2018-Apr-08 12:30N 21°21' W 089°41'0 0.0
2018-Apr-08 12:00N 21°21' W 089°41'0 0.0
2018-Apr-08 11:30N 21°21' W 089°41'0 0.0
2018-Apr-08 11:00N 21°21' W 089°41'0 0.0
2018-Apr-08 10:30N 21°21' W 089°41'0 0.0
2018-Apr-08 10:00N 21°21' W 089°41'0 0.0
2018-Apr-08 09:30N 21°21' W 089°41'0 0.0
2018-Apr-08 09:00N 21°21' W 089°41'0 0.0
2018-Apr-08 08:30N 21°21' W 089°41'0 0.0
2018-Apr-08 08:00N 21°21' W 089°41'0 0.0
2018-Apr-08 07:30N 21°21' W 089°41'0 0.0
2018-Apr-08 07:00N 21°21' W 089°41'0 0.0
2018-Apr-08 06:30N 21°21' W 089°41'0 0.0
2018-Apr-08 06:00N 21°21' W 089°41'0 0.0
2018-Apr-08 05:30N 21°21' W 089°41'0 0.0
2018-Apr-08 05:00N 21°21' W 089°41'0 0.0
2018-Apr-08 04:30N 21°21' W 089°41'0 0.0
2018-Apr-08 04:00N 21°21' W 089°41'0 0.0
2018-Apr-08 03:30N 21°21' W 089°41'0 0.0
2018-Apr-08 03:00N 21°21' W 089°41'0 0.0
2018-Apr-08 02:30N 21°21' W 089°41'0 0.0
2018-Apr-08 02:00N 21°21' W 089°41'0 0.0
2018-Apr-08 01:30N 21°21' W 089°41'0 0.0
2018-Apr-08 01:00N 21°21' W 089°41'0 0.0
2018-Apr-08 00:30N 21°21' W 089°41'0 0.0
2018-Apr-08 00:00N 21°21' W 089°41'0 0.0
2018-Apr-07 23:30N 21°21' W 089°41'0 0.0
2018-Apr-07 23:00N 21°21' W 089°41'0 0.0
2018-Apr-07 22:30N 21°21' W 089°41'0 0.0
2018-Apr-07 22:00N 21°21' W 089°41'0 0.0
2018-Apr-07 21:30N 21°21' W 089°41'0 0.0
2018-Apr-07 21:00N 21°21' W 089°41'0 0.0
2018-Apr-07 20:30N 21°21' W 089°41'0 0.0
2018-Apr-07 20:00N 21°21' W 089°41'0 0.0
2018-Apr-07 19:30N 21°21' W 089°41'0 0.0
2018-Apr-07 19:00N 21°21' W 089°41'0 0.0
2018-Apr-07 18:30N 21°21' W 089°41'0 0.0
2018-Apr-07 18:00N 21°21' W 089°41'0 0.0
2018-Apr-07 17:30N 21°21' W 089°41'0 0.0
2018-Apr-07 17:00N 21°21' W 089°41'0 0.0
2018-Apr-07 16:30N 21°21' W 089°41'0 0.0
2018-Apr-07 16:00N 21°21' W 089°41'0 0.0
2018-Apr-07 15:30N 21°21' W 089°41'0 0.0
2018-Apr-07 15:00N 21°21' W 089°41'0 0.0
2018-Apr-07 14:30N 21°21' W 089°41'0 0.0
2018-Apr-07 14:00N 21°21' W 089°41'0 0.0
2018-Apr-07 13:30N 21°21' W 089°41'6 0.8
2018-Apr-07 05:33N 21°27' W 089°40'0 0.1
2018-Apr-07 05:30N 21°27' W 089°40'0 0.0
2018-Apr-07 05:00N 21°27' W 089°40'0 0.0
2018-Apr-07 04:30N 21°27' W 089°40'0 0.1
2018-Apr-07 04:00N 21°27' W 089°40'0 0.0
2018-Apr-07 03:30N 21°27' W 089°40'0 0.0
2018-Apr-07 03:00N 21°27' W 089°40'0 0.0
2018-Apr-07 02:30N 21°27' W 089°40'0 0.0
2018-Apr-07 02:00N 21°27' W 089°40'0 0.0
2018-Apr-07 01:30N 21°27' W 089°40'0 0.0
2018-Apr-07 01:00N 21°27' W 089°40'0 0.0
2018-Apr-07 00:30N 21°27' W 089°40'0 0.0
2018-Apr-07 00:00N 21°27' W 089°40'0 0.0
2018-Apr-06 23:30N 21°27' W 089°40'0 0.0
2018-Apr-06 23:00N 21°27' W 089°40'0 0.0
2018-Apr-06 22:30N 21°27' W 089°40'0 0.0
2018-Apr-06 22:00N 21°27' W 089°40'0 0.0
2018-Apr-06 21:30N 21°27' W 089°40'0 0.0
2018-Apr-06 21:00N 21°27' W 089°40'0 0.0
2018-Apr-06 20:30N 21°27' W 089°40'0 0.0
2018-Apr-06 20:00N 21°27' W 089°40'0 0.0
2018-Apr-06 19:30N 21°27' W 089°40'0 0.0
2018-Apr-06 18:54N 21°27' W 089°40'0 0.0
2018-Apr-06 18:30N 21°27' W 089°40'0 0.0
2018-Apr-06 18:00N 21°27' W 089°40'0 0.0
2018-Apr-06 17:30N 21°27' W 089°40'0 0.0
2018-Apr-06 17:00N 21°27' W 089°40'0 0.0
2018-Apr-06 16:27N 21°27' W 089°40'0 0.0
2018-Apr-06 16:00N 21°27' W 089°40'0 0.0
2018-Apr-06 15:30N 21°27' W 089°40'0 0.0
2018-Apr-06 15:00N 21°27' W 089°40'0 0.0
2018-Apr-06 14:30N 21°27' W 089°40'0 0.0
2018-Apr-06 14:00N 21°27' W 089°40'0 0.0
2018-Apr-06 13:30N 21°27' W 089°40'0 0.0
2018-Apr-06 12:57N 21°27' W 089°40'0 0.0
2018-Apr-06 12:27N 21°27' W 089°40'0 0.0
2018-Apr-06 12:00N 21°27' W 089°40'0 0.0
2018-Apr-06 11:30N 21°27' W 089°40'0 0.0
2018-Apr-06 11:00N 21°27' W 089°40'0 0.0
2018-Apr-06 10:30N 21°27' W 089°40'0 0.0
2018-Apr-06 10:00N 21°27' W 089°40'0 0.0
2018-Apr-06 09:30N 21°27' W 089°40'0 0.0
2018-Apr-06 09:00N 21°27' W 089°40'0 0.0
2018-Apr-06 08:30N 21°27' W 089°40'0 0.0
2018-Apr-06 07:57N 21°27' W 089°40'0 0.0
2018-Apr-06 07:30N 21°27' W 089°40'0 0.0
2018-Apr-06 07:00N 21°27' W 089°40'0 0.0
2018-Apr-06 06:30N 21°27' W 089°40'0 0.0
2018-Apr-06 06:00N 21°27' W 089°40'0 0.0
2018-Apr-06 05:30N 21°27' W 089°40'0 0.0
2018-Apr-06 05:00N 21°27' W 089°40'0 0.0
2018-Apr-06 04:30N 21°27' W 089°40'0 0.0
2018-Apr-06 04:00N 21°27' W 089°40'0 0.0
2018-Apr-06 03:30N 21°27' W 089°40'0 0.0
2018-Apr-06 03:00N 21°27' W 089°40'0 0.0
2018-Apr-06 02:30N 21°27' W 089°40'0 0.0
2018-Apr-06 02:00N 21°27' W 089°40'0 0.0
2018-Apr-06 01:30N 21°27' W 089°40'0 0.0
2018-Apr-06 01:00N 21°27' W 089°40'0 0.0
2018-Apr-06 00:27N 21°27' W 089°40'0 0.0
2018-Apr-05 23:57N 21°27' W 089°40'0 0.0
2018-Apr-05 23:30N 21°27' W 089°40'0 0.0
2018-Apr-05 23:00N 21°27' W 089°40'0 0.0
2018-Apr-05 22:30N 21°27' W 089°40'0 0.0
2018-Apr-05 22:00N 21°27' W 089°40'0 0.0
2018-Apr-05 21:30N 21°27' W 089°40'0 0.0
2018-Apr-05 21:00N 21°27' W 089°40'0 0.0
2018-Apr-05 20:30N 21°27' W 089°40'0 0.0
2018-Apr-05 20:00N 21°27' W 089°40'0 0.0
2018-Apr-05 19:30N 21°27' W 089°40'0 0.0
2018-Apr-05 19:00N 21°27' W 089°40'0 0.0
2018-Apr-05 18:30N 21°27' W 089°40'0 0.0
2018-Apr-05 18:00N 21°27' W 089°40'0 0.0
2018-Apr-05 17:24N 21°27' W 089°40'0 0.0
2018-Apr-05 17:00N 21°27' W 089°40'0 0.0
2018-Apr-05 16:30N 21°27' W 089°40'0 0.0
2018-Apr-05 16:00N 21°27' W 089°40'0 0.0
2018-Apr-05 15:27N 21°27' W 089°40'0 0.0
2018-Apr-05 15:00N 21°27' W 089°40'0 0.0
2018-Apr-05 14:30N 21°27' W 089°40'0 0.0
2018-Apr-05 14:00N 21°27' W 089°40'0 0.0
2018-Apr-05 13:30N 21°27' W 089°40'0 0.0
2018-Apr-05 13:00N 21°27' W 089°40'0 0.0
2018-Apr-05 12:30N 21°27' W 089°40'0 0.0
2018-Apr-05 12:00N 21°27' W 089°40'0 0.0
2018-Apr-05 11:30N 21°27' W 089°40'0 0.0
2018-Apr-05 11:00N 21°27' W 089°40'0 0.0
2018-Apr-05 10:30N 21°27' W 089°40'0 0.0
2018-Apr-05 10:00N 21°27' W 089°40'0 0.0
2018-Apr-05 09:30N 21°27' W 089°40'0 0.0
2018-Apr-05 09:00N 21°27' W 089°40'0 0.0
2018-Apr-05 08:30N 21°27' W 089°40'0 0.0
2018-Apr-05 08:00N 21°27' W 089°40'0 0.0
2018-Apr-05 07:30N 21°27' W 089°40'0 0.0
2018-Apr-05 07:00N 21°27' W 089°40'0 0.0
2018-Apr-05 06:30N 21°27' W 089°40'0 0.0
2018-Apr-05 06:00N 21°27' W 089°40'0 0.0
2018-Apr-05 05:30N 21°27' W 089°40'0 0.0
2018-Apr-05 05:00N 21°27' W 089°40'0 0.0
2018-Apr-05 04:30N 21°27' W 089°40'0 0.0
2018-Apr-05 04:00N 21°27' W 089°40'0 0.0
2018-Apr-05 03:24N 21°27' W 089°40'0 0.0
2018-Apr-05 03:00N 21°27' W 089°40'0 0.0
2018-Apr-05 02:30N 21°27' W 089°40'0 0.0
2018-Apr-05 02:00N 21°27' W 089°40'0 0.0
2018-Apr-05 01:30N 21°27' W 089°40'0 0.0
2018-Apr-05 01:00N 21°27' W 089°40'0 0.0
2018-Apr-05 00:30N 21°27' W 089°40'0 0.0
2018-Apr-05 00:00N 21°27' W 089°40'0 0.0
2018-Apr-04 23:30N 21°27' W 089°40'0 0.0
2018-Apr-04 23:00N 21°27' W 089°40'0 0.0
2018-Apr-04 22:30N 21°27' W 089°40'0 0.0
2018-Apr-04 22:00N 21°27' W 089°40'0 0.0
2018-Apr-04 21:30N 21°27' W 089°40'0 0.0
2018-Apr-04 21:00N 21°27' W 089°40'0 0.0
2018-Apr-04 20:30N 21°27' W 089°40'0 0.0
2018-Apr-04 20:00N 21°27' W 089°40'0 0.0
2018-Apr-04 19:30N 21°27' W 089°40'0 0.0
2018-Apr-04 19:00N 21°27' W 089°40'0 0.0
2018-Apr-04 18:30N 21°27' W 089°40'0 0.0
2018-Apr-04 18:00N 21°27' W 089°40'0 0.0
2018-Apr-04 17:30N 21°27' W 089°40'0 0.0
2018-Apr-04 17:00N 21°27' W 089°40'0 0.0
2018-Apr-04 16:30N 21°27' W 089°40'0 0.0
2018-Apr-04 16:00N 21°27' W 089°40'0 0.0
2018-Apr-04 15:30N 21°27' W 089°40'0 0.0
2018-Apr-04 15:00N 21°27' W 089°40'0 0.0
2018-Apr-04 14:30N 21°27' W 089°40'0 0.0
2018-Apr-04 14:00N 21°27' W 089°40'0 0.0
2018-Apr-04 13:30N 21°27' W 089°40'0 0.0
2018-Apr-04 13:00N 21°27' W 089°40'0 0.0
2018-Apr-04 12:30N 21°27' W 089°40'0 0.0
2018-Apr-04 12:00N 21°27' W 089°40'0 0.0
2018-Apr-04 11:30N 21°27' W 089°40'0 0.0
2018-Apr-04 11:00N 21°27' W 089°40'0 0.0
2018-Apr-04 10:30N 21°27' W 089°40'0 0.0
2018-Apr-04 10:00N 21°27' W 089°40'0 0.0
2018-Apr-04 09:30N 21°27' W 089°40'0 0.0
2018-Apr-04 09:00N 21°27' W 089°40'0 0.0
2018-Apr-04 08:30N 21°27' W 089°40'0 0.0
2018-Apr-04 08:00N 21°27' W 089°40'0 0.0
2018-Apr-04 07:30N 21°27' W 089°40'0 0.0
2018-Apr-04 07:00N 21°27' W 089°40'0 0.0
2018-Apr-04 06:30N 21°27' W 089°40'0 0.0
2018-Apr-04 06:00N 21°27' W 089°40'0 0.0
2018-Apr-04 05:30N 21°27' W 089°40'0 0.0
2018-Apr-04 05:00N 21°27' W 089°40'0 0.0
2018-Apr-04 04:30N 21°27' W 089°40'0 0.0
2018-Apr-04 04:00N 21°27' W 089°40'0 0.0
2018-Apr-04 03:30N 21°27' W 089°40'0 0.0
2018-Apr-04 03:00N 21°27' W 089°40'0 0.0
2018-Apr-04 02:30N 21°27' W 089°40'0 0.1
2018-Apr-04 02:00N 21°27' W 089°40'0 0.0
2018-Apr-04 01:30N 21°27' W 089°40'0 0.0
2018-Apr-04 01:00N 21°27' W 089°40'0 0.0
2018-Apr-04 00:30N 21°27' W 089°40'0 0.0
2018-Apr-04 00:00N 21°27' W 089°40'0 0.0
2018-Apr-03 23:30N 21°27' W 089°40'0 0.0
2018-Apr-03 23:00N 21°27' W 089°40'0 0.0
2018-Apr-03 22:30N 21°27' W 089°40'0 0.0
2018-Apr-03 22:00N 21°27' W 089°40'0 0.0
2018-Apr-03 21:30N 21°27' W 089°40'0 0.0
2018-Apr-03 21:00N 21°27' W 089°40'0 0.0
2018-Apr-03 20:30N 21°27' W 089°40'0 0.0
2018-Apr-03 19:51N 21°27' W 089°40'0 0.0
2018-Apr-03 19:30N 21°27' W 089°40'0 0.0
2018-Apr-03 19:00N 21°27' W 089°40'0 0.0
2018-Apr-03 18:30N 21°27' W 089°40'0 0.0
2018-Apr-03 18:00N 21°27' W 089°40'0 0.0
2018-Apr-03 17:30N 21°27' W 089°40'0 0.0
2018-Apr-03 17:00N 21°27' W 089°40'0 0.0
2018-Apr-03 16:30N 21°27' W 089°40'0 0.0
2018-Apr-03 16:00N 21°27' W 089°40'0 0.0
2018-Apr-03 15:30N 21°27' W 089°40'0 0.1
2018-Apr-03 15:00N 21°27' W 089°40'0 0.0
2018-Apr-03 14:30N 21°27' W 089°40'0 0.0
2018-Apr-03 14:00N 21°27' W 089°40'0 0.0
2018-Apr-03 13:30N 21°27' W 089°40'0 0.0
2018-Apr-03 13:00N 21°27' W 089°40'0 0.0
2018-Apr-03 12:30N 21°27' W 089°40'0 0.0
2018-Apr-03 12:00N 21°27' W 089°40'0 0.0
2018-Apr-03 11:30N 21°27' W 089°40'0 0.0
2018-Apr-03 11:00N 21°27' W 089°40'0 0.0
2018-Apr-03 10:30N 21°27' W 089°40'0 0.0
2018-Apr-03 10:00N 21°27' W 089°40'0 0.0
2018-Apr-03 09:30N 21°27' W 089°40'0 0.0
2018-Apr-03 09:00N 21°27' W 089°40'0 0.0
2018-Apr-03 08:30N 21°27' W 089°40'0 0.0
2018-Apr-03 08:00N 21°27' W 089°40'0 0.0
2018-Apr-03 07:30N 21°27' W 089°40'0 0.0
2018-Apr-03 07:00N 21°27' W 089°40'0 0.0
2018-Apr-03 06:30N 21°27' W 089°40'0 0.0
2018-Apr-03 06:00N 21°27' W 089°40'0 0.0
2018-Apr-03 05:30N 21°27' W 089°40'0 0.0
2018-Apr-03 05:00N 21°27' W 089°40'0 0.0
2018-Apr-03 04:30N 21°27' W 089°40'0 0.0
2018-Apr-03 04:00N 21°27' W 089°40'0 0.1
2018-Apr-03 03:30N 21°27' W 089°40'0 0.0
2018-Apr-03 03:00N 21°27' W 089°40'0 0.0
2018-Apr-03 02:30N 21°27' W 089°40'0 0.0
2018-Apr-03 02:00N 21°27' W 089°40'0 0.0
2018-Apr-03 01:30N 21°27' W 089°40'  
Track history (hours):
 
Tides and Currents Weather Stations Pressure Air Temp Water Temp Dewpoint Dewpoint Depression Visibility Wind Speed Wind Dir Waves Ship Positions

Southend

Last reported at 2018-Apr-13 01:10 UTC. Time now 2018-Apr-21 13:41 UTC.
Position N 22°46' W 089°28'.
Warning: this ship's position is 8 days out of date.

Length 187 m; draft 7 m.

Type: Cargo ship. MMSI: 636017652.

Date/timePositionNaut miles runAvg speedWind from/ knotsBaromVisibWave heightAir tempDewpointWater temp
2018-Apr-13 01:10N 22°46' W 089°28'210.4
2018-Apr-13 00:59N 22°44' W 089°28'510.5
2018-Apr-13 00:30N 22°39' W 089°29'1010.5
2018-Apr-12 23:31N 22°29' W 089°29'010.8
2018-Apr-12 23:30N 22°28' W 089°29'610.8
2018-Apr-12 22:59N 22°23' W 089°30'510.7
2018-Apr-12 22:30N 22°18' W 089°31'510.4
2018-Apr-12 22:00N 22°13' W 089°32'510.6
2018-Apr-12 21:30N 22°08' W 089°34'510.6
2018-Apr-12 21:00N 22°02' W 089°35'510.9
2018-Apr-12 20:30N 21°57' W 089°35'510.9
2018-Apr-12 20:00N 21°52' W 089°36'510.9
2018-Apr-12 19:30N 21°46' W 089°37'5 9.6
2018-Apr-12 19:00N 21°42' W 089°38'1 1.2
2018-Apr-12 18:29N 21°41' W 089°38'0 0.0
2018-Apr-12 17:59N 21°41' W 089°38'0 0.0
2018-Apr-12 17:29N 21°41' W 089°38'0 0.0
2018-Apr-12 16:59N 21°41' W 089°38'0 0.0
2018-Apr-12 16:29N 21°41' W 089°38'0 0.0
2018-Apr-12 15:59N 21°41' W 089°38'0 0.0
2018-Apr-12 15:29N 21°41' W 089°38'0 0.0
2018-Apr-12 14:59N 21°41' W 089°38'0 0.0
2018-Apr-12 14:29N 21°41' W 089°38'0 0.0
2018-Apr-12 13:59N 21°41' W 089°38'0 0.0
2018-Apr-12 13:29N 21°41' W 089°38'0 0.0
2018-Apr-12 12:59N 21°41' W 089°38'0 0.1
2018-Apr-12 12:29N 21°41' W 089°38'0 0.0
2018-Apr-12 11:59N 21°41' W 089°38'0 0.0
2018-Apr-12 11:29N 21°41' W 089°38'0 0.0
2018-Apr-12 10:53N 21°41' W 089°38'0 0.0
2018-Apr-12 10:29N 21°41' W 089°38'0 0.1
2018-Apr-12 09:59N 21°41' W 089°38'0 0.0
2018-Apr-12 09:26N 21°41' W 089°38'0 0.0
2018-Apr-12 08:59N 21°41' W 089°38'0 0.0
2018-Apr-12 08:29N 21°41' W 089°38'0 0.0
2018-Apr-12 07:56N 21°41' W 089°38'0 0.0
2018-Apr-12 07:29N 21°41' W 089°38'0 0.0
2018-Apr-12 06:59N 21°41' W 089°38'0 0.0
2018-Apr-12 06:29N 21°41' W 089°38'0 0.0
2018-Apr-12 05:59N 21°41' W 089°38'0 0.0
2018-Apr-12 05:29N 21°41' W 089°38'0 0.0
2018-Apr-12 04:59N 21°41' W 089°38'0 0.0
2018-Apr-12 04:29N 21°41' W 089°38'0 0.0
2018-Apr-12 03:59N 21°41' W 089°38'0 0.0
2018-Apr-12 03:29N 21°41' W 089°38'0 0.0
2018-Apr-12 02:56N 21°41' W 089°38'0 0.0
2018-Apr-12 02:29N 21°41' W 089°38'0 0.1
2018-Apr-12 01:59N 21°41' W 089°38'0 0.0
2018-Apr-12 01:29N 21°41' W 089°38'0 0.1
2018-Apr-12 00:59N 21°41' W 089°38'0 0.0
2018-Apr-12 00:29N 21°41' W 089°38'0 0.0
2018-Apr-11 23:50N 21°41' W 089°38'0 0.1
2018-Apr-11 23:26N 21°41' W 089°38'0 0.1
2018-Apr-11 22:59N 21°41' W 089°38'0 0.0
2018-Apr-11 22:29N 21°41' W 089°38'0 0.0
2018-Apr-11 21:56N 21°41' W 089°38'0 0.1
2018-Apr-11 21:26N 21°41' W 089°38'0 0.0
2018-Apr-11 20:14N 21°41' W 089°38'0 0.3
2018-Apr-11 19:50N 21°41' W 089°38'9 8.2
2018-Apr-11 18:41N 21°32' W 089°40'2 9.6
2018-Apr-11 18:30N 21°30' W 089°40'5 9.6
2018-Apr-11 18:00N 21°25' W 089°42'4 8.7
2018-Apr-11 17:30N 21°21' W 089°42'1 1.5
2018-Apr-11 16:58N 21°21' W 089°41'0 0.0
2018-Apr-11 16:29N 21°21' W 089°41'0 0.0
2018-Apr-11 15:59N 21°21' W 089°41'0 0.0
2018-Apr-11 15:29N 21°21' W 089°41'0 0.0
2018-Apr-11 14:59N 21°21' W 089°41'0 0.0
2018-Apr-11 14:29N 21°21' W 089°41'0 0.0
2018-Apr-11 13:59N 21°21' W 089°41'0 0.0
2018-Apr-11 13:29N 21°21' W 089°41'0 0.0
2018-Apr-11 12:59N 21°21' W 089°41'0 0.0
2018-Apr-11 12:29N 21°21' W 089°41'0 0.0
2018-Apr-11 11:59N 21°21' W 089°41'0 0.0
2018-Apr-11 11:29N 21°21' W 089°41'0 0.0
2018-Apr-11 10:59N 21°21' W 089°41'0 0.0
2018-Apr-11 10:29N 21°21' W 089°41'0 0.0
2018-Apr-11 09:59N 21°21' W 089°41'0 0.0
2018-Apr-11 09:29N 21°21' W 089°41'0 0.0
2018-Apr-11 08:59N 21°21' W 089°41'0 0.0
2018-Apr-11 08:28N 21°21' W 089°41'0 0.0
2018-Apr-11 07:58N 21°21' W 089°41'0 0.0
2018-Apr-11 07:29N 21°21' W 089°41'0 0.0
2018-Apr-11 06:58N 21°21' W 089°41'0 0.0
2018-Apr-11 06:29N 21°21' W 089°41'0 0.0
2018-Apr-11 05:59N 21°21' W 089°41'0 0.0
2018-Apr-11 05:29N 21°21' W 089°41'0 0.0
2018-Apr-11 04:58N 21°21' W 089°41'0 0.0
2018-Apr-11 04:29N 21°21' W 089°41'0 0.0
2018-Apr-11 03:59N 21°21' W 089°41'0 0.0
2018-Apr-11 03:29N 21°21' W 089°41'0 0.0
2018-Apr-11 02:58N 21°21' W 089°41'0 0.0
2018-Apr-11 02:28N 21°21' W 089°41'0 0.0
2018-Apr-11 01:58N 21°21' W 089°41'0 0.0
2018-Apr-11 01:29N 21°21' W 089°41'0 0.0
2018-Apr-11 00:58N 21°21' W 089°41'0 0.0
2018-Apr-11 00:28N 21°21' W 089°41'0 0.0
2018-Apr-10 23:58N 21°21' W 089°41'0 0.0
2018-Apr-10 23:29N 21°21' W 089°41'0 0.0
2018-Apr-10 22:59N 21°21' W 089°41'0 0.0
2018-Apr-10 22:28N 21°21' W 089°41'0 0.0
2018-Apr-10 21:59N 21°21' W 089°41'0 0.0
2018-Apr-10 21:28N 21°21' W 089°41'0 0.0
2018-Apr-10 21:00N 21°21' W 089°41'0 0.0
2018-Apr-10 20:30N 21°21' W 089°41'0 0.0
2018-Apr-10 20:00N 21°21' W 089°41'0 0.0
2018-Apr-10 19:30N 21°21' W 089°41'0 0.0
2018-Apr-10 19:00N 21°21' W 089°41'0 0.0
2018-Apr-10 18:30N 21°21' W 089°41'0 0.0
2018-Apr-10 18:00N 21°21' W 089°41'0 0.0
2018-Apr-10 17:30N 21°21' W 089°41'0 0.0
2018-Apr-10 17:00N 21°21' W 089°41'0 0.0
2018-Apr-10 16:30N 21°21' W 089°41'0 0.0
2018-Apr-10 16:00N 21°21' W 089°41'0 0.0
2018-Apr-10 15:30N 21°21' W 089°41'0 0.0
2018-Apr-10 15:00N 21°21' W 089°41'0 0.0
2018-Apr-10 14:30N 21°21' W 089°41'0 0.0
2018-Apr-10 14:00N 21°21' W 089°41'0 0.0
2018-Apr-10 13:30N 21°21' W 089°41'0 0.0
2018-Apr-10 13:00N 21°21' W 089°41'0 0.0
2018-Apr-10 12:30N 21°21' W 089°41'0 0.0
2018-Apr-10 12:00N 21°21' W 089°41'0 0.0
2018-Apr-10 11:30N 21°21' W 089°41'0 0.0
2018-Apr-10 11:00N 21°21' W 089°41'0 0.0
2018-Apr-10 10:30N 21°21' W 089°41'0 0.0
2018-Apr-10 10:00N 21°21' W 089°41'0 0.0
2018-Apr-10 09:30N 21°21' W 089°41'0 0.0
2018-Apr-10 09:00N 21°21' W 089°41'0 0.0
2018-Apr-10 08:30N 21°21' W 089°41'0 0.0
2018-Apr-10 08:00N 21°21' W 089°41'0 0.0
2018-Apr-10 07:30N 21°21' W 089°41'0 0.0
2018-Apr-10 07:00N 21°21' W 089°41'0 0.0
2018-Apr-10 06:30N 21°21' W 089°41'0 0.0
2018-Apr-10 06:00N 21°21' W 089°41'0 0.0
2018-Apr-10 05:30N 21°21' W 089°41'0 0.0
2018-Apr-10 05:00N 21°21' W 089°41'0 0.0
2018-Apr-10 04:30N 21°21' W 089°41'0 0.0
2018-Apr-10 04:00N 21°21' W 089°41'0 0.0
2018-Apr-10 03:30N 21°21' W 089°41'0 0.0
2018-Apr-10 03:00N 21°21' W 089°41'0 0.0
2018-Apr-10 02:30N 21°21' W 089°41'0 0.0
2018-Apr-10 02:00N 21°21' W 089°41'0 0.0
2018-Apr-10 01:30N 21°21' W 089°41'0 0.0
2018-Apr-10 01:00N 21°21' W 089°41'0 0.0
2018-Apr-10 00:30N 21°21' W 089°41'0 0.0
2018-Apr-10 00:00N 21°21' W 089°41'0 0.0
2018-Apr-09 23:30N 21°21' W 089°41'0 0.0
2018-Apr-09 23:00N 21°21' W 089°41'0 0.0
2018-Apr-09 22:30N 21°21' W 089°41'0 0.0
2018-Apr-09 22:00N 21°21' W 089°41'0 0.0
2018-Apr-09 21:30N 21°21' W 089°41'0 0.0
2018-Apr-09 21:00N 21°21' W 089°41'0 0.0
2018-Apr-09 20:30N 21°21' W 089°41'0 0.0
2018-Apr-09 20:00N 21°21' W 089°41'0 0.0
2018-Apr-09 19:30N 21°21' W 089°41'0 0.0
2018-Apr-09 19:00N 21°21' W 089°41'0 0.0
2018-Apr-09 18:30N 21°21' W 089°41'0 0.0
2018-Apr-09 18:00N 21°21' W 089°41'0 0.0
2018-Apr-09 17:30N 21°21' W 089°41'0 0.0
2018-Apr-09 17:00N 21°21' W 089°41'0 0.0
2018-Apr-09 16:30N 21°21' W 089°41'0 0.0
2018-Apr-09 16:00N 21°21' W 089°41'0 0.0
2018-Apr-09 15:30N 21°21' W 089°41'0 0.0
2018-Apr-09 15:00N 21°21' W 089°41'0 0.0
2018-Apr-09 14:30N 21°21' W 089°41'0 0.0
2018-Apr-09 14:00N 21°21' W 089°41'0 0.0
2018-Apr-09 13:30N 21°21' W 089°41'0 0.0
2018-Apr-09 13:00N 21°21' W 089°41'0 0.0
2018-Apr-09 12:30N 21°21' W 089°41'0 0.0
2018-Apr-09 12:00N 21°21' W 089°41'0 0.0
2018-Apr-09 11:30N 21°21' W 089°41'0 0.0
2018-Apr-09 11:00N 21°21' W 089°41'0 0.0
2018-Apr-09 10:30N 21°21' W 089°41'0 0.0
2018-Apr-09 10:00N 21°21' W 089°41'0 0.0
2018-Apr-09 09:30N 21°21' W 089°41'0 0.0
2018-Apr-09 09:00N 21°21' W 089°41'0 0.0
2018-Apr-09 08:30N 21°21' W 089°41'0 0.0
2018-Apr-09 08:00N 21°21' W 089°41'0 0.0
2018-Apr-09 07:30N 21°21' W 089°41'0 0.0
2018-Apr-09 07:00N 21°21' W 089°41'0 0.0
2018-Apr-09 06:30N 21°21' W 089°41'0 0.0
2018-Apr-09 06:00N 21°21' W 089°41'0 0.0
2018-Apr-09 05:30N 21°21' W 089°41'0 0.0
2018-Apr-09 05:00N 21°21' W 089°41'0 0.0
2018-Apr-09 04:30N 21°21' W 089°41'0 0.0
2018-Apr-09 04:00N 21°21' W 089°41'0 0.0
2018-Apr-09 03:30N 21°21' W 089°41'0 0.0
2018-Apr-09 03:00N 21°21' W 089°41'0 0.0
2018-Apr-09 02:30N 21°21' W 089°41'0 0.0
2018-Apr-09 02:00N 21°21' W 089°41'0 0.0
2018-Apr-09 01:30N 21°21' W 089°41'0 0.0
2018-Apr-09 01:00N 21°21' W 089°41'0 0.0
2018-Apr-09 00:30N 21°21' W 089°41'0 0.0
2018-Apr-09 00:00N 21°21' W 089°41'0 0.0
2018-Apr-08 23:30N 21°21' W 089°41'0 0.0
2018-Apr-08 23:00N 21°21' W 089°41'0 0.0
2018-Apr-08 22:30N 21°21' W 089°41'0 0.0
2018-Apr-08 22:00N 21°21' W 089°41'0 0.0
2018-Apr-08 21:30N 21°21' W 089°41'0 0.0
2018-Apr-08 21:00N 21°21' W 089°41'0 0.0
2018-Apr-08 20:30N 21°21' W 089°41'0 0.0
2018-Apr-08 20:00N 21°21' W 089°41'0 0.0
2018-Apr-08 19:30N 21°21' W 089°41'0 0.0
2018-Apr-08 19:00N 21°21' W 089°41'0 0.0
2018-Apr-08 18:30N 21°21' W 089°41'0 0.0
2018-Apr-08 18:00N 21°21' W 089°41'0 0.0
2018-Apr-08 17:30N 21°21' W 089°41'0 0.0
2018-Apr-08 17:00N 21°21' W 089°41'0 0.0
2018-Apr-08 16:30N 21°21' W 089°41'0 0.0
2018-Apr-08 16:00N 21°21' W 089°41'0 0.0
2018-Apr-08 15:30N 21°21' W 089°41'0 0.0
2018-Apr-08 15:00N 21°21' W 089°41'0 0.0
2018-Apr-08 14:30N 21°21' W 089°41'0 0.0
2018-Apr-08 14:00N 21°21' W 089°41'0 0.0
2018-Apr-08 13:30N 21°21' W 089°41'0 0.0
2018-Apr-08 13:00N 21°21' W 089°41'0 0.0
2018-Apr-08 12:30N 21°21' W 089°41'0 0.0
2018-Apr-08 12:00N 21°21' W 089°41'0 0.0
2018-Apr-08 11:30N 21°21' W 089°41'0 0.0
2018-Apr-08 11:00N 21°21' W 089°41'0 0.0
2018-Apr-08 10:30N 21°21' W 089°41'0 0.0
2018-Apr-08 10:00N 21°21' W 089°41'0 0.0
2018-Apr-08 09:30N 21°21' W 089°41'0 0.0
2018-Apr-08 09:00N 21°21' W 089°41'0 0.0
2018-Apr-08 08:30N 21°21' W 089°41'0 0.0
2018-Apr-08 08:00N 21°21' W 089°41'0 0.0
2018-Apr-08 07:30N 21°21' W 089°41'0 0.0
2018-Apr-08 07:00N 21°21' W 089°41'0 0.0
2018-Apr-08 06:30N 21°21' W 089°41'0 0.0
2018-Apr-08 06:00N 21°21' W 089°41'0 0.0
2018-Apr-08 05:30N 21°21' W 089°41'0 0.0
2018-Apr-08 05:00N 21°21' W 089°41'0 0.0
2018-Apr-08 04:30N 21°21' W 089°41'0 0.0
2018-Apr-08 04:00N 21°21' W 089°41'0 0.0
2018-Apr-08 03:30N 21°21' W 089°41'0 0.0
2018-Apr-08 03:00N 21°21' W 089°41'0 0.0
2018-Apr-08 02:30N 21°21' W 089°41'0 0.0
2018-Apr-08 02:00N 21°21' W 089°41'0 0.0
2018-Apr-08 01:30N 21°21' W 089°41'0 0.0
2018-Apr-08 01:00N 21°21' W 089°41'0 0.0
2018-Apr-08 00:30N 21°21' W 089°41'0 0.0
2018-Apr-08 00:00N 21°21' W 089°41'0 0.0
2018-Apr-07 23:30N 21°21' W 089°41'0 0.0
2018-Apr-07 23:00N 21°21' W 089°41'0 0.0
2018-Apr-07 22:30N 21°21' W 089°41'0 0.0
2018-Apr-07 22:00N 21°21' W 089°41'0 0.0
2018-Apr-07 21:30N 21°21' W 089°41'0 0.0
2018-Apr-07 21:00N 21°21' W 089°41'0 0.0
2018-Apr-07 20:30N 21°21' W 089°41'0 0.0
2018-Apr-07 20:00N 21°21' W 089°41'0 0.0
2018-Apr-07 19:30N 21°21' W 089°41'0 0.0
2018-Apr-07 19:00N 21°21' W 089°41'0 0.0
2018-Apr-07 18:30N 21°21' W 089°41'0 0.0
2018-Apr-07 18:00N 21°21' W 089°41'0 0.0
2018-Apr-07 17:30N 21°21' W 089°41'0 0.0
2018-Apr-07 17:00N 21°21' W 089°41'0 0.0
2018-Apr-07 16:30N 21°21' W 089°41'0 0.0
2018-Apr-07 16:00N 21°21' W 089°41'0 0.0
2018-Apr-07 15:30N 21°21' W 089°41'0 0.0
2018-Apr-07 15:00N 21°21' W 089°41'0 0.0
2018-Apr-07 14:30N 21°21' W 089°41'0 0.0
2018-Apr-07 14:00N 21°21' W 089°41'0 0.0
2018-Apr-07 13:30N 21°21' W 089°41'6 0.8
2018-Apr-07 05:33N 21°27' W 089°40'0 0.1
2018-Apr-07 05:30N 21°27' W 089°40'0 0.0
2018-Apr-07 05:00N 21°27' W 089°40'0 0.0
2018-Apr-07 04:30N 21°27' W 089°40'0 0.1
2018-Apr-07 04:00N 21°27' W 089°40'0 0.0
2018-Apr-07 03:30N 21°27' W 089°40'0 0.0
2018-Apr-07 03:00N 21°27' W 089°40'0 0.0
2018-Apr-07 02:30N 21°27' W 089°40'0 0.0
2018-Apr-07 02:00N 21°27' W 089°40'0 0.0
2018-Apr-07 01:30N 21°27' W 089°40'0 0.0
2018-Apr-07 01:00N 21°27' W 089°40'0 0.0
2018-Apr-07 00:30N 21°27' W 089°40'0 0.0
2018-Apr-07 00:00N 21°27' W 089°40'0 0.0
2018-Apr-06 23:30N 21°27' W 089°40'0 0.0
2018-Apr-06 23:00N 21°27' W 089°40'0 0.0
2018-Apr-06 22:30N 21°27' W 089°40'0 0.0
2018-Apr-06 22:00N 21°27' W 089°40'0 0.0
2018-Apr-06 21:30N 21°27' W 089°40'0 0.0
2018-Apr-06 21:00N 21°27' W 089°40'0 0.0
2018-Apr-06 20:30N 21°27' W 089°40'0 0.0
2018-Apr-06 20:00N 21°27' W 089°40'0 0.0
2018-Apr-06 19:30N 21°27' W 089°40'0 0.0
2018-Apr-06 18:54N 21°27' W 089°40'0 0.0
2018-Apr-06 18:30N 21°27' W 089°40'0 0.0
2018-Apr-06 18:00N 21°27' W 089°40'0 0.0
2018-Apr-06 17:30N 21°27' W 089°40'0 0.0
2018-Apr-06 17:00N 21°27' W 089°40'0 0.0
2018-Apr-06 16:27N 21°27' W 089°40'0 0.0
2018-Apr-06 16:00N 21°27' W 089°40'0 0.0
2018-Apr-06 15:30N 21°27' W 089°40'0 0.0
2018-Apr-06 15:00N 21°27' W 089°40'0 0.0
2018-Apr-06 14:30N 21°27' W 089°40'0 0.0
2018-Apr-06 14:00N 21°27' W 089°40'0 0.0
2018-Apr-06 13:30N 21°27' W 089°40'0 0.0
2018-Apr-06 12:57N 21°27' W 089°40'0 0.0
2018-Apr-06 12:27N 21°27' W 089°40'0 0.0
2018-Apr-06 12:00N 21°27' W 089°40'0 0.0
2018-Apr-06 11:30N 21°27' W 089°40'0 0.0
2018-Apr-06 11:00N 21°27' W 089°40'0 0.0
2018-Apr-06 10:30N 21°27' W 089°40'0 0.0
2018-Apr-06 10:00N 21°27' W 089°40'0 0.0
2018-Apr-06 09:30N 21°27' W 089°40'0 0.0
2018-Apr-06 09:00N 21°27' W 089°40'0 0.0
2018-Apr-06 08:30N 21°27' W 089°40'0 0.0
2018-Apr-06 07:57N 21°27' W 089°40'0 0.0
2018-Apr-06 07:30N 21°27' W 089°40'0 0.0
2018-Apr-06 07:00N 21°27' W 089°40'0 0.0
2018-Apr-06 06:30N 21°27' W 089°40'0 0.0
2018-Apr-06 06:00N 21°27' W 089°40'0 0.0
2018-Apr-06 05:30N 21°27' W 089°40'0 0.0
2018-Apr-06 05:00N 21°27' W 089°40'0 0.0
2018-Apr-06 04:30N 21°27' W 089°40'0 0.0
2018-Apr-06 04:00N 21°27' W 089°40'0 0.0
2018-Apr-06 03:30N 21°27' W 089°40'0 0.0
2018-Apr-06 03:00N 21°27' W 089°40'0 0.0
2018-Apr-06 02:30N 21°27' W 089°40'0 0.0
2018-Apr-06 02:00N 21°27' W 089°40'0 0.0
2018-Apr-06 01:30N 21°27' W 089°40'0 0.0
2018-Apr-06 01:00N 21°27' W 089°40'0 0.0
2018-Apr-06 00:27N 21°27' W 089°40'0 0.0
2018-Apr-05 23:57N 21°27' W 089°40'0 0.0
2018-Apr-05 23:30N 21°27' W 089°40'0 0.0
2018-Apr-05 23:00N 21°27' W 089°40'0 0.0
2018-Apr-05 22:30N 21°27' W 089°40'0 0.0
2018-Apr-05 22:00N 21°27' W 089°40'0 0.0
2018-Apr-05 21:30N 21°27' W 089°40'0 0.0
2018-Apr-05 21:00N 21°27' W 089°40'0 0.0
2018-Apr-05 20:30N 21°27' W 089°40'0 0.0
2018-Apr-05 20:00N 21°27' W 089°40'0 0.0
2018-Apr-05 19:30N 21°27' W 089°40'0 0.0
2018-Apr-05 19:00N 21°27' W 089°40'0 0.0
2018-Apr-05 18:30N 21°27' W 089°40'0 0.0
2018-Apr-05 18:00N 21°27' W 089°40'0 0.0
2018-Apr-05 17:24N 21°27' W 089°40'0 0.0
2018-Apr-05 17:00N 21°27' W 089°40'0 0.0
2018-Apr-05 16:30N 21°27' W 089°40'0 0.0
2018-Apr-05 16:00N 21°27' W 089°40'0 0.0
2018-Apr-05 15:27N 21°27' W 089°40'0 0.0
2018-Apr-05 15:00N 21°27' W 089°40'0 0.0
2018-Apr-05 14:30N 21°27' W 089°40'0 0.0
2018-Apr-05 14:00N 21°27' W 089°40'0 0.0
2018-Apr-05 13:30N 21°27' W 089°40'0 0.0
2018-Apr-05 13:00N 21°27' W 089°40'0 0.0
2018-Apr-05 12:30N 21°27' W 089°40'0 0.0
2018-Apr-05 12:00N 21°27' W 089°40'0 0.0
2018-Apr-05 11:30N 21°27' W 089°40'0 0.0
2018-Apr-05 11:00N 21°27' W 089°40'0 0.0
2018-Apr-05 10:30N 21°27' W 089°40'0 0.0
2018-Apr-05 10:00N 21°27' W 089°40'0 0.0
2018-Apr-05 09:30N 21°27' W 089°40'0 0.0
2018-Apr-05 09:00N 21°27' W 089°40'0 0.0
2018-Apr-05 08:30N 21°27' W 089°40'0 0.0
2018-Apr-05 08:00N 21°27' W 089°40'0 0.0
2018-Apr-05 07:30N 21°27' W 089°40'0 0.0
2018-Apr-05 07:00N 21°27' W 089°40'0 0.0
2018-Apr-05 06:30N 21°27' W 089°40'0 0.0
2018-Apr-05 06:00N 21°27' W 089°40'0 0.0
2018-Apr-05 05:30N 21°27' W 089°40'0 0.0
2018-Apr-05 05:00N 21°27' W 089°40'0 0.0
2018-Apr-05 04:30N 21°27' W 089°40'0 0.0
2018-Apr-05 04:00N 21°27' W 089°40'0 0.0
2018-Apr-05 03:24N 21°27' W 089°40'0 0.0
2018-Apr-05 03:00N 21°27' W 089°40'0 0.0
2018-Apr-05 02:30N 21°27' W 089°40'0 0.0
2018-Apr-05 02:00N 21°27' W 089°40'0 0.0
2018-Apr-05 01:30N 21°27' W 089°40'0 0.0
2018-Apr-05 01:00N 21°27' W 089°40'0 0.0
2018-Apr-05 00:30N 21°27' W 089°40'0 0.0
2018-Apr-05 00:00N 21°27' W 089°40'0 0.0
2018-Apr-04 23:30N 21°27' W 089°40'0 0.0
2018-Apr-04 23:00N 21°27' W 089°40'0 0.0
2018-Apr-04 22:30N 21°27' W 089°40'0 0.0
2018-Apr-04 22:00N 21°27' W 089°40'0 0.0
2018-Apr-04 21:30N 21°27' W 089°40'0 0.0
2018-Apr-04 21:00N 21°27' W 089°40'0 0.0
2018-Apr-04 20:30N 21°27' W 089°40'0 0.0
2018-Apr-04 20:00N 21°27' W 089°40'0 0.0
2018-Apr-04 19:30N 21°27' W 089°40'0 0.0
2018-Apr-04 19:00N 21°27' W 089°40'0 0.0
2018-Apr-04 18:30N 21°27' W 089°40'0 0.0
2018-Apr-04 18:00N 21°27' W 089°40'0 0.0
2018-Apr-04 17:30N 21°27' W 089°40'0 0.0
2018-Apr-04 17:00N 21°27' W 089°40'0 0.0
2018-Apr-04 16:30N 21°27' W 089°40'0 0.0
2018-Apr-04 16:00N 21°27' W 089°40'0 0.0
2018-Apr-04 15:30N 21°27' W 089°40'0 0.0
2018-Apr-04 15:00N 21°27' W 089°40'0 0.0
2018-Apr-04 14:30N 21°27' W 089°40'0 0.0
2018-Apr-04 14:00N 21°27' W 089°40'0 0.0
2018-Apr-04 13:30N 21°27' W 089°40'0 0.0
2018-Apr-04 13:00N 21°27' W 089°40'0 0.0
2018-Apr-04 12:30N 21°27' W 089°40'0 0.0
2018-Apr-04 12:00N 21°27' W 089°40'0 0.0
2018-Apr-04 11:30N 21°27' W 089°40'0 0.0
2018-Apr-04 11:00N 21°27' W 089°40'0 0.0
2018-Apr-04 10:30N 21°27' W 089°40'0 0.0
2018-Apr-04 10:00N 21°27' W 089°40'0 0.0
2018-Apr-04 09:30N 21°27' W 089°40'0 0.0
2018-Apr-04 09:00N 21°27' W 089°40'0 0.0
2018-Apr-04 08:30N 21°27' W 089°40'0 0.0
2018-Apr-04 08:00N 21°27' W 089°40'0 0.0
2018-Apr-04 07:30N 21°27' W 089°40'0 0.0
2018-Apr-04 07:00N 21°27' W 089°40'0 0.0
2018-Apr-04 06:30N 21°27' W 089°40'0 0.0
2018-Apr-04 06:00N 21°27' W 089°40'0 0.0
2018-Apr-04 05:30N 21°27' W 089°40'0 0.0
2018-Apr-04 05:00N 21°27' W 089°40'0 0.0
2018-Apr-04 04:30N 21°27' W 089°40'0 0.0
2018-Apr-04 04:00N 21°27' W 089°40'0 0.0
2018-Apr-04 03:30N 21°27' W 089°40'0 0.0
2018-Apr-04 03:00N 21°27' W 089°40'0 0.0
2018-Apr-04 02:30N 21°27' W 089°40'0 0.1
2018-Apr-04 02:00N 21°27' W 089°40'0 0.0
2018-Apr-04 01:30N 21°27' W 089°40'0 0.0
2018-Apr-04 01:00N 21°27' W 089°40'0 0.0
2018-Apr-04 00:30N 21°27' W 089°40'0 0.0
2018-Apr-04 00:00N 21°27' W 089°40'0 0.0
2018-Apr-03 23:30N 21°27' W 089°40'0 0.0
2018-Apr-03 23:00N 21°27' W 089°40'0 0.0
2018-Apr-03 22:30N 21°27' W 089°40'0 0.0
2018-Apr-03 22:00N 21°27' W 089°40'0 0.0
2018-Apr-03 21:30N 21°27' W 089°40'0 0.0
2018-Apr-03 21:00N 21°27' W 089°40'0 0.0
2018-Apr-03 20:30N 21°27' W 089°40'0 0.0
2018-Apr-03 19:51N 21°27' W 089°40'0 0.0
2018-Apr-03 19:30N 21°27' W 089°40'0 0.0
2018-Apr-03 19:00N 21°27' W 089°40'0 0.0
2018-Apr-03 18:30N 21°27' W 089°40'0 0.0
2018-Apr-03 18:00N 21°27' W 089°40'0 0.0
2018-Apr-03 17:30N 21°27' W 089°40'0 0.0
2018-Apr-03 17:00N 21°27' W 089°40'0 0.0
2018-Apr-03 16:30N 21°27' W 089°40'0 0.0
2018-Apr-03 16:00N 21°27' W 089°40'0 0.0
2018-Apr-03 15:30N 21°27' W 089°40'0 0.1
2018-Apr-03 15:00N 21°27' W 089°40'0 0.0
2018-Apr-03 14:30N 21°27' W 089°40'0 0.0
2018-Apr-03 14:00N 21°27' W 089°40'0 0.0
2018-Apr-03 13:30N 21°27' W 089°40'0 0.0
2018-Apr-03 13:00N 21°27' W 089°40'0 0.0
2018-Apr-03 12:30N 21°27' W 089°40'0 0.0
2018-Apr-03 12:00N 21°27' W 089°40'0 0.0
2018-Apr-03 11:30N 21°27' W 089°40'0 0.0
2018-Apr-03 11:00N 21°27' W 089°40'0 0.0
2018-Apr-03 10:30N 21°27' W 089°40'0 0.0
2018-Apr-03 10:00N 21°27' W 089°40'0 0.0
2018-Apr-03 09:30N 21°27' W 089°40'0 0.0
2018-Apr-03 09:00N 21°27' W 089°40'0 0.0
2018-Apr-03 08:30N 21°27' W 089°40'0 0.0
2018-Apr-03 08:00N 21°27' W 089°40'0 0.0
2018-Apr-03 07:30N 21°27' W 089°40'0 0.0
2018-Apr-03 07:00N 21°27' W 089°40'0 0.0
2018-Apr-03 06:30N 21°27' W 089°40'0 0.0
2018-Apr-03 06:00N 21°27' W 089°40'0 0.0
2018-Apr-03 05:30N 21°27' W 089°40'0 0.0
2018-Apr-03 05:00N 21°27' W 089°40'0 0.0
2018-Apr-03 04:30N 21°27' W 089°40'0 0.0
2018-Apr-03 04:00N 21°27' W 089°40'0 0.1
2018-Apr-03 03:30N 21°27' W 089°40'0 0.0
2018-Apr-03 03:00N 21°27' W 089°40'0 0.0
2018-Apr-03 02:30N 21°27' W 089°40'0 0.0
2018-Apr-03 02:00N 21°27' W 089°40'0 0.0
2018-Apr-03 01:30N 21°27' W 089°40'  

Dump ship's entire track history